Green, Ohio
Current Conditions -  °F | °C
As of 5:51 AM on Sunday 23 Nov 2014 (Local Time) from KCAK Reporting Station
Light Rain Light Rain  
Wind Chill: 39°   Ceiling: 6000
Heat Index: 44°   Visibility: 6mi
Dew Point: 36°   Wind: 10mph
Humidity: 73%   Direction: 200°SSW
Pressure: 30.06"   Gusts: NA
Location:  40.95°N, 81.49°W
Report Text: KCAK 231051Z 20009KT 6SM -RA BR OVC060 07/02 A3006 RMK AO2 SLP186 P0001 T00670022 $
Loading
Personal Weather Stations






























Interactive Weather Map New forecast layout! Learn more

10-Day Weather Forecast

Advertisements
Track Severe Weather on mobile